sensor_id;sensor_type;location;lat;lon;timestamp;pressure;altitude;pressure_sealevel;temperature;humidity
60319;BME280;46163;52.306;5.634;2023-02-28T00:00:50;103059.66;;;15.89;49.71
60319;BME280;46163;52.306;5.634;2023-02-28T00:03:16;103059.03;;;15.87;49.62
60319;BME280;46163;52.306;5.634;2023-02-28T00:05:41;103059.22;;;15.85;49.51
60319;BME280;46163;52.306;5.634;2023-02-28T00:08:07;103056.06;;;15.81;49.61
60319;BME280;46163;52.306;5.634;2023-02-28T00:10:33;103064.13;;;15.81;49.55
60319;BME280;46163;52.306;5.634;2023-02-28T00:13:04;103062.41;;;15.80;49.59
60319;BME280;46163;52.306;5.634;2023-02-28T00:15:31;103065.28;;;15.79;49.44
60319;BME280;46163;52.306;5.634;2023-02-28T00:17:57;103047.69;;;15.76;49.45
60319;BME280;46163;52.306;5.634;2023-02-28T00:20:22;103052.06;;;15.77;49.31
60319;BME280;46163;52.306;5.634;2023-02-28T00:22:51;103048.72;;;15.75;49.43
60319;BME280;46163;52.306;5.634;2023-02-28T00:25:21;103047.91;;;15.75;49.38
60319;BME280;46163;52.306;5.634;2023-02-28T00:27:47;103041.00;;;15.72;49.08
60319;BME280;46163;52.306;5.634;2023-02-28T00:30:15;103047.41;;;15.71;49.09
60319;BME280;46163;52.306;5.634;2023-02-28T00:32:41;103050.28;;;15.70;49.17
60319;BME280;46163;52.306;5.634;2023-02-28T00:35:07;103048.59;;;15.69;49.08
60319;BME280;46163;52.306;5.634;2023-02-28T00:37:34;103045.28;;;15.67;49.03
60319;BME280;46163;52.306;5.634;2023-02-28T00:40:00;103049.81;;;15.66;48.99
60319;BME280;46163;52.306;5.634;2023-02-28T00:42:25;103036.56;;;15.65;48.98
60319;BME280;46163;52.306;5.634;2023-02-28T00:44:51;103040.28;;;15.64;49.07
60319;BME280;46163;52.306;5.634;2023-02-28T00:47:16;103043.66;;;15.58;49.14
60319;BME280;46163;52.306;5.634;2023-02-28T00:49:42;103044.28;;;15.60;49.02
60319;BME280;46163;52.306;5.634;2023-02-28T00:52:07;103035.47;;;15.51;48.94
60319;BME280;46163;52.306;5.634;2023-02-28T00:54:33;103049.84;;;15.58;48.83
60319;BME280;46163;52.306;5.634;2023-02-28T00:57:00;103050.84;;;15.57;48.86
60319;BME280;46163;52.306;5.634;2023-02-28T00:59:26;103050.56;;;15.52;48.89
60319;BME280;46163;52.306;5.634;2023-02-28T01:01:52;103046.66;;;15.54;48.74
60319;BME280;46163;52.306;5.634;2023-02-28T01:04:17;103058.41;;;15.53;48.88
60319;BME280;46163;52.306;5.634;2023-02-28T01:06:43;103044.91;;;15.47;48.91
60319;BME280;46163;52.306;5.634;2023-02-28T01:09:08;103055.09;;;15.51;48.65
60319;BME280;46163;52.306;5.634;2023-02-28T01:11:35;103052.59;;;15.50;48.92
60319;BME280;46163;52.306;5.634;2023-02-28T01:14:01;103059.81;;;15.49;48.77
60319;BME280;46163;52.306;5.634;2023-02-28T01:16:27;103052.78;;;15.48;48.84
60319;BME280;46163;52.306;5.634;2023-02-28T01:18:53;103048.56;;;15.46;48.96
60319;BME280;46163;52.306;5.634;2023-02-28T01:21:23;103055.63;;;15.47;48.79
60319;BME280;46163;52.306;5.634;2023-02-28T01:23:49;103058.47;;;15.45;48.76
60319;BME280;46163;52.306;5.634;2023-02-28T01:26:18;103047.75;;;15.45;48.69
60319;BME280;46163;52.306;5.634;2023-02-28T01:28:44;103047.28;;;15.42;48.64
60319;BME280;46163;52.306;5.634;2023-02-28T01:31:09;103040.63;;;15.38;48.55
60319;BME280;46163;52.306;5.634;2023-02-28T01:33:35;103040.63;;;15.38;48.63
60319;BME280;46163;52.306;5.634;2023-02-28T01:36:03;103036.41;;;15.35;48.71
60319;BME280;46163;52.306;5.634;2023-02-28T01:38:30;103047.66;;;15.39;48.62
60319;BME280;46163;52.306;5.634;2023-02-28T01:40:56;103038.91;;;15.37;48.55
60319;BME280;46163;52.306;5.634;2023-02-28T01:43:39;103037.06;;;15.37;48.57
60319;BME280;46163;52.306;5.634;2023-02-28T01:46:15;103039.09;;;15.35;48.51
60319;BME280;46163;52.306;5.634;2023-02-28T01:48:49;103035.59;;;15.35;48.56
60319;BME280;46163;52.306;5.634;2023-02-28T01:51:22;103026.06;;;15.32;48.69
60319;BME280;46163;52.306;5.634;2023-02-28T01:53:53;103023.75;;;15.29;48.77
60319;BME280;46163;52.306;5.634;2023-02-28T01:56:27;103030.59;;;15.32;48.46
60319;BME280;46163;52.306;5.634;2023-02-28T01:58:54;103025.75;;;15.27;48.60
60319;BME280;46163;52.306;5.634;2023-02-28T02:01:21;103028.94;;;15.31;48.51
60319;BME280;46163;52.306;5.634;2023-02-28T02:03:52;103026.44;;;15.29;48.47
60319;BME280;46163;52.306;5.634;2023-02-28T02:06:22;103019.53;;;15.26;48.66
60319;BME280;46163;52.306;5.634;2023-02-28T02:08:48;103025.75;;;15.27;48.42
60319;BME280;46163;52.306;5.634;2023-02-28T02:11:17;103019.72;;;15.25;48.57
60319;BME280;46163;52.306;5.634;2023-02-28T02:14:58;103022.22;;;15.26;48.35
60319;BME280;46163;52.306;5.634;2023-02-28T02:17:14;103022.41;;;15.25;48.41
60319;BME280;46163;52.306;5.634;2023-02-28T02:23:05;103018.25;;;15.22;48.08
60319;BME280;46163;52.306;5.634;2023-02-28T02:25:54;103018.44;;;15.21;48.33
60319;BME280;46163;52.306;5.634;2023-02-28T02:36:25;103019.59;;;15.18;48.64
60319;BME280;46163;52.306;5.634;2023-02-28T02:39:08;103013.59;;;15.16;48.49
60319;BME280;46163;52.306;5.634;2023-02-28T02:41:49;103011.94;;;15.15;48.30
60319;BME280;46163;52.306;5.634;2023-02-28T02:44:30;103018.31;;;15.14;48.46
60319;BME280;46163;52.306;5.634;2023-02-28T02:47:06;103006.75;;;15.14;48.50
60319;BME280;46163;52.306;5.634;2023-02-28T02:49:36;103001.91;;;15.09;48.17
60319;BME280;46163;52.306;5.634;2023-02-28T02:52:09;103009.59;;;15.12;48.32
60319;BME280;46163;52.306;5.634;2023-02-28T02:54:40;103014.97;;;15.12;48.24
60319;BME280;46163;52.306;5.634;2023-02-28T02:57:09;103002.06;;;15.08;48.27
60319;BME280;46163;52.306;5.634;2023-02-28T02:59:38;103000.59;;;15.05;48.30
60319;BME280;46163;52.306;5.634;2023-02-28T03:02:07;103011.59;;;15.10;48.50
60319;BME280;46163;52.306;5.634;2023-02-28T03:04:41;103014.47;;;15.09;48.39
60319;BME280;46163;52.306;5.634;2023-02-28T03:07:07;103010.31;;;15.06;48.11
60319;BME280;46163;52.306;5.634;2023-02-28T03:09:34;103014.47;;;15.09;48.35
60319;BME280;46163;52.306;5.634;2023-02-28T03:12:01;103022.69;;;15.07;48.22
60319;BME280;46163;52.306;5.634;2023-02-28T03:14:56;103015.69;;;15.06;48.23
60319;BME280;46163;52.306;5.634;2023-02-28T03:20:27;103013.34;;;15.03;48.09
60319;BME280;46163;52.306;5.634;2023-02-28T03:23:13;103015.19;;;15.03;48.00
60319;BME280;46163;52.306;5.634;2023-02-28T03:31:03;103024.22;;;15.02;48.13
60319;BME280;46163;52.306;5.634;2023-02-28T03:36:35;103031.63;;;14.99;48.46
60319;BME280;46163;52.306;5.634;2023-02-28T03:39:09;103033.28;;;15.01;48.38
60319;BME280;46163;52.306;5.634;2023-02-28T03:41:46;103033.47;;;14.99;48.27
60319;BME280;46163;52.306;5.634;2023-02-28T03:44:42;103029.31;;;14.96;48.16
60319;BME280;46163;52.306;5.634;2023-02-28T03:47:23;103027.16;;;14.92;48.31
60319;BME280;46163;52.306;5.634;2023-02-28T03:50:18;103038.38;;;14.95;48.22
60319;BME280;46163;52.306;5.634;2023-02-28T03:52:58;103044.75;;;14.94;48.19
60319;BME280;46163;52.306;5.634;2023-02-28T03:55:32;103036.84;;;14.93;48.06
60319;BME280;46163;52.306;5.634;2023-02-28T03:58:23;103029.00;;;14.91;48.22
60319;BME280;46163;52.306;5.634;2023-02-28T04:00:56;103037.03;;;14.91;48.07
60319;BME280;46163;52.306;5.634;2023-02-28T04:03:24;103032.50;;;14.92;48.31
60319;BME280;46163;52.306;5.634;2023-02-28T04:05:54;103026.66;;;14.88;48.09
60319;BME280;46163;52.306;5.634;2023-02-28T04:08:21;103031.84;;;14.90;48.12
60319;BME280;46163;52.306;5.634;2023-02-28T04:10:53;103030.19;;;14.89;48.25
60319;BME280;46163;52.306;5.634;2023-02-28T04:13:21;103026.50;;;14.90;48.03
60319;BME280;46163;52.306;5.634;2023-02-28T04:15:46;103037.88;;;14.92;48.43
60319;BME280;46163;52.306;5.634;2023-02-28T04:18:12;103038.69;;;14.92;48.09
60319;BME280;46163;52.306;5.634;2023-02-28T04:20:37;103037.69;;;14.93;48.30
60319;BME280;46163;52.306;5.634;2023-02-28T04:23:03;103034.84;;;14.95;48.32
60319;BME280;46163;52.306;5.634;2023-02-28T04:25:28;103039.03;;;14.97;48.22
60319;BME280;46163;52.306;5.634;2023-02-28T04:27:54;103039.50;;;15.01;48.01
60319;BME280;46163;52.306;5.634;2023-02-28T04:30:19;103031.13;;;15.04;48.14
60319;BME280;46163;52.306;5.634;2023-02-28T04:32:45;103027.69;;;15.10;47.95
60319;BME280;46163;52.306;5.634;2023-02-28T04:35:13;103031.53;;;15.16;48.00
60319;BME280;46163;52.306;5.634;2023-02-28T04:37:38;103029.63;;;15.24;47.63
60319;BME280;46163;52.306;5.634;2023-02-28T04:40:04;103028.38;;;15.35;47.50
60319;BME280;46163;52.306;5.634;2023-02-28T04:42:29;103030.81;;;15.45;47.19
60319;BME280;46163;52.306;5.634;2023-02-28T04:45:02;103025.19;;;15.54;46.75
60319;BME280;46163;52.306;5.634;2023-02-28T04:47:28;103015.59;;;15.60;46.78
60319;BME280;46163;52.306;5.634;2023-02-28T04:49:53;103031.97;;;15.73;46.41
60319;BME280;46163;52.306;5.634;2023-02-28T04:52:21;102999.47;;;15.68;46.35
60319;BME280;46163;52.306;5.634;2023-02-28T04:54:47;103013.00;;;15.90;46.28
60319;BME280;46163;52.306;5.634;2023-02-28T04:57:13;103024.50;;;15.98;46.12
60319;BME280;46163;52.306;5.634;2023-02-28T04:59:38;103024.41;;;16.06;45.90
60319;BME280;46163;52.306;5.634;2023-02-28T05:02:04;103026.19;;;16.14;45.63
60319;BME280;46163;52.306;5.634;2023-02-28T05:04:33;103025.44;;;16.20;45.43
60319;BME280;46163;52.306;5.634;2023-02-28T05:07:00;103021.34;;;16.24;45.67
60319;BME280;46163;52.306;5.634;2023-02-28T05:09:26;103030.66;;;16.36;45.38
60319;BME280;46163;52.306;5.634;2023-02-28T05:11:53;103027.38;;;16.41;45.30
60319;BME280;46163;52.306;5.634;2023-02-28T05:14:21;103028.69;;;16.45;44.95
60319;BME280;46163;52.306;5.634;2023-02-28T05:16:46;103035.19;;;16.51;44.84
60319;BME280;46163;52.306;5.634;2023-02-28T05:19:11;103042.88;;;16.54;44.85
60319;BME280;46163;52.306;5.634;2023-02-28T05:21:49;103042.69;;;16.55;44.83
60319;BME280;46163;52.306;5.634;2023-02-28T05:24:15;103041.75;;;16.63;44.73
60319;BME280;46163;52.306;5.634;2023-02-28T05:26:48;103038.66;;;16.66;44.86
60319;BME280;46163;52.306;5.634;2023-02-28T05:29:13;103038.34;;;16.69;44.83
60319;BME280;46163;52.306;5.634;2023-02-28T05:31:39;103043.34;;;16.72;44.74
60319;BME280;46163;52.306;5.634;2023-02-28T05:34:04;103030.91;;;16.71;44.82
60319;BME280;46163;52.306;5.634;2023-02-28T05:36:30;103044.25;;;16.79;44.62
60319;BME280;46163;52.306;5.634;2023-02-28T05:38:55;103042.00;;;16.83;44.62
60319;BME280;46163;52.306;5.634;2023-02-28T05:41:21;103037.47;;;16.83;44.39
60319;BME280;46163;52.306;5.634;2023-02-28T05:43:48;103051.44;;;16.93;44.45
60319;BME280;46163;52.306;5.634;2023-02-28T05:46:13;103048.00;;;17.00;44.29
60319;BME280;46163;52.306;5.634;2023-02-28T05:48:40;103043.94;;;17.04;44.38
60319;BME280;46163;52.306;5.634;2023-02-28T05:51:07;103046.66;;;17.10;44.03
60319;BME280;46163;52.306;5.634;2023-02-28T05:53:33;103048.16;;;17.13;44.05
60319;BME280;46163;52.306;5.634;2023-02-28T05:55:59;103049.03;;;17.20;44.07
60319;BME280;46163;52.306;5.634;2023-02-28T05:58:24;103052.00;;;17.25;43.88
60319;BME280;46163;52.306;5.634;2023-02-28T06:00:54;103046.63;;;17.25;43.78
60319;BME280;46163;52.306;5.634;2023-02-28T06:03:20;103050.03;;;17.34;43.95
60319;BME280;46163;52.306;5.634;2023-02-28T06:05:45;103037.88;;;17.38;43.60
60319;BME280;46163;52.306;5.634;2023-02-28T06:08:10;103050.75;;;17.42;43.76
60319;BME280;46163;52.306;5.634;2023-02-28T06:10:36;103035.03;;;17.46;43.71
60319;BME280;46163;52.306;5.634;2023-02-28T06:13:03;103036.50;;;17.48;43.70
60319;BME280;46163;52.306;5.634;2023-02-28T06:15:29;103045.84;;;17.52;43.68
60319;BME280;46163;52.306;5.634;2023-02-28T06:17:55;103048.19;;;17.56;43.70
60319;BME280;46163;52.306;5.634;2023-02-28T06:20:22;103040.53;;;17.59;43.92
60319;BME280;46163;52.306;5.634;2023-02-28T06:22:48;103042.41;;;17.59;43.73
60319;BME280;46163;52.306;5.634;2023-02-28T06:25:15;103040.81;;;17.64;43.76
60319;BME280;46163;52.306;5.634;2023-02-28T06:27:41;103041.44;;;17.66;43.62
60319;BME280;46163;52.306;5.634;2023-02-28T06:30:07;103038.34;;;17.69;43.78
60319;BME280;46163;52.306;5.634;2023-02-28T06:32:32;103043.56;;;17.71;43.49
60319;BME280;46163;52.306;5.634;2023-02-28T06:34:58;103039.66;;;17.73;43.70
60319;BME280;46163;52.306;5.634;2023-02-28T06:37:23;103045.69;;;17.75;43.69
60319;BME280;46163;52.306;5.634;2023-02-28T06:39:52;103047.16;;;17.78;43.77
60319;BME280;46163;52.306;5.634;2023-02-28T06:42:18;103045.28;;;17.78;43.91
60319;BME280;46163;52.306;5.634;2023-02-28T06:44:45;103054.00;;;17.80;43.63
60319;BME280;46163;52.306;5.634;2023-02-28T06:47:12;103053.16;;;17.80;43.62
60319;BME280;46163;52.306;5.634;2023-02-28T06:49:37;103050.47;;;17.80;43.93
60319;BME280;46163;52.306;5.634;2023-02-28T06:52:04;103059.59;;;17.79;43.75
60319;BME280;46163;52.306;5.634;2023-02-28T06:54:29;103055.84;;;17.80;43.73
60319;BME280;46163;52.306;5.634;2023-02-28T06:56:55;103049.63;;;17.79;43.62
60319;BME280;46163;52.306;5.634;2023-02-28T06:59:20;103045.09;;;17.80;43.38
60319;BME280;46163;52.306;5.634;2023-02-28T07:01:46;103056.88;;;17.79;43.47
60319;BME280;46163;52.306;5.634;2023-02-28T07:04:12;103064.97;;;17.79;43.74
60319;BME280;46163;52.306;5.634;2023-02-28T07:06:38;103056.69;;;17.80;43.49
60319;BME280;46163;52.306;5.634;2023-02-28T07:09:04;103056.69;;;17.80;43.46
60319;BME280;46163;52.306;5.634;2023-02-28T07:11:29;103061.44;;;17.78;43.70
60319;BME280;46163;52.306;5.634;2023-02-28T07:13:55;103062.47;;;17.77;43.69
60319;BME280;46163;52.306;5.634;2023-02-28T07:16:22;103060.63;;;17.78;43.50
60319;BME280;46163;52.306;5.634;2023-02-28T07:18:49;103060.63;;;17.78;43.42
60319;BME280;46163;52.306;5.634;2023-02-28T07:21:15;103063.94;;;17.80;43.49
60319;BME280;46163;52.306;5.634;2023-02-28T07:23:40;103062.94;;;17.81;43.83
60319;BME280;46163;52.306;5.634;2023-02-28T07:26:11;103074.13;;;17.85;43.51
60319;BME280;46163;52.306;5.634;2023-02-28T07:28:38;103073.75;;;17.88;44.00
60319;BME280;46163;52.306;5.634;2023-02-28T07:31:05;103052.53;;;17.78;43.94
60319;BME280;46163;52.306;5.634;2023-02-28T07:33:31;103074.63;;;17.95;43.75
60319;BME280;46163;52.306;5.634;2023-02-28T07:36:05;103047.22;;;17.85;43.90
60319;BME280;46163;52.306;5.634;2023-02-28T07:38:34;103070.97;;;18.02;43.88
60319;BME280;46163;52.306;5.634;2023-02-28T07:41:01;103072.63;;;18.03;43.78
60319;BME280;46163;52.306;5.634;2023-02-28T07:43:30;103078.66;;;18.05;43.84
60319;BME280;46163;52.306;5.634;2023-02-28T07:46:01;103083.47;;;18.10;43.87
60319;BME280;46163;52.306;5.634;2023-02-28T07:48:28;103088.03;;;18.10;43.73
60319;BME280;46163;52.306;5.634;2023-02-28T07:50:55;103080.56;;;18.12;43.70
60319;BME280;46163;52.306;5.634;2023-02-28T07:53:23;103060.66;;;18.13;43.55
60319;BME280;46163;52.306;5.634;2023-02-28T07:55:48;103061.69;;;18.12;43.53
60319;BME280;46163;52.306;5.634;2023-02-28T07:58:14;103067.28;;;18.10;43.53
60319;BME280;46163;52.306;5.634;2023-02-28T08:00:40;103079.94;;;18.10;43.77
60319;BME280;46163;52.306;5.634;2023-02-28T08:03:06;103082.00;;;18.07;43.65
60319;BME280;46163;52.306;5.634;2023-02-28T08:05:31;103087.56;;;18.06;43.48
60319;BME280;46163;52.306;5.634;2023-02-28T08:07:57;103084.44;;;18.02;43.62
60319;BME280;46163;52.306;5.634;2023-02-28T08:10:23;103083.81;;;18.00;43.76
60319;BME280;46163;52.306;5.634;2023-02-28T08:12:49;103092.91;;;17.99;43.89
60319;BME280;46163;52.306;5.634;2023-02-28T08:15:15;103092.25;;;17.97;44.25
60319;BME280;46163;52.306;5.634;2023-02-28T08:17:40;103092.25;;;17.97;44.25
60319;BME280;46163;52.306;5.634;2023-02-28T08:20:07;103098.69;;;17.96;44.12
60319;BME280;46163;52.306;5.634;2023-02-28T08:22:32;103100.53;;;17.96;44.07
60319;BME280;46163;52.306;5.634;2023-02-28T08:24:58;103092.66;;;17.94;43.72
60319;BME280;46163;52.306;5.634;2023-02-28T08:27:23;103089.13;;;17.94;43.73
60319;BME280;46163;52.306;5.634;2023-02-28T08:29:49;103089.97;;;17.94;43.83
60319;BME280;46163;52.306;5.634;2023-02-28T08:32:14;103086.25;;;17.95;44.02
60319;BME280;46163;52.306;5.634;2023-02-28T08:34:40;103093.28;;;17.96;44.05
60319;BME280;46163;52.306;5.634;2023-02-28T08:37:05;103098.47;;;17.98;43.83
60319;BME280;46163;52.306;5.634;2023-02-28T08:39:34;103093.94;;;17.98;44.08
60319;BME280;46163;52.306;5.634;2023-02-28T08:42:02;103074.97;;;17.85;44.19
60319;BME280;46163;52.306;5.634;2023-02-28T08:44:28;103101.44;;;18.03;44.00
60319;BME280;46163;52.306;5.634;2023-02-28T08:46:54;103101.22;;;18.04;43.99
60319;BME280;46163;52.306;5.634;2023-02-28T08:49:19;103097.50;;;18.05;44.14
60319;BME280;46163;52.306;5.634;2023-02-28T08:51:45;103087.56;;;18.06;43.97
60319;BME280;46163;52.306;5.634;2023-02-28T08:54:11;103077.97;;;17.97;43.76
60319;BME280;46163;52.306;5.634;2023-02-28T08:56:45;103089.41;;;18.05;43.77
60319;BME280;46163;52.306;5.634;2023-02-28T08:59:10;103099.63;;;18.10;44.05
60319;BME280;46163;52.306;5.634;2023-02-28T09:01:36;103091.34;;;18.12;43.93
60319;BME280;46163;52.306;5.634;2023-02-28T09:04:02;103093.00;;;18.13;43.94
60319;BME280;46163;52.306;5.634;2023-02-28T09:06:28;103093.84;;;18.13;44.08
60319;BME280;46163;52.306;5.634;2023-02-28T09:08:56;103097.38;;;18.14;43.72
60319;BME280;46163;52.306;5.634;2023-02-28T09:11:23;103098.03;;;18.16;43.84
60319;BME280;46163;52.306;5.634;2023-02-28T09:13:49;103101.16;;;18.19;44.00
60319;BME280;46163;52.306;5.634;2023-02-28T09:16:15;103101.97;;;18.20;43.78
60319;BME280;46163;52.306;5.634;2023-02-28T09:18:42;103089.75;;;18.24;43.58
60319;BME280;46163;52.306;5.634;2023-02-28T09:21:09;103088.09;;;18.23;43.66
60319;BME280;46163;52.306;5.634;2023-02-28T09:23:35;103096.00;;;18.24;43.52
60319;BME280;46163;52.306;5.634;2023-02-28T09:26:04;103092.66;;;18.22;43.32
60319;BME280;46163;52.306;5.634;2023-02-28T09:28:30;103101.19;;;18.26;43.47
60319;BME280;46163;52.306;5.634;2023-02-28T09:30:55;103089.38;;;18.27;43.39
60319;BME280;46163;52.306;5.634;2023-02-28T09:33:22;103087.53;;;18.27;43.53
60319;BME280;46163;52.306;5.634;2023-02-28T09:35:58;103085.88;;;18.26;43.47
60319;BME280;46163;52.306;5.634;2023-02-28T09:38:24;103088.56;;;18.26;43.11
60319;BME280;46163;52.306;5.634;2023-02-28T09:40:52;103085.03;;;18.26;43.48
60319;BME280;46163;52.306;5.634;2023-02-28T09:43:22;103079.19;;;18.22;43.33
60319;BME280;46163;52.306;5.634;2023-02-28T09:45:53;103080.66;;;18.25;43.27
60319;BME280;46163;52.306;5.634;2023-02-28T09:48:28;103066.88;;;18.13;43.42
60319;BME280;46163;52.306;5.634;2023-02-28T09:51:09;103092.91;;;18.27;43.46
60319;BME280;46163;52.306;5.634;2023-02-28T09:53:38;103091.88;;;18.28;43.40
60319;BME280;46163;52.306;5.634;2023-02-28T09:56:33;103104.53;;;18.28;43.59
60319;BME280;46163;52.306;5.634;2023-02-28T10:06:51;103102.47;;;18.30;43.43
60319;BME280;46163;52.306;5.634;2023-02-28T10:09:19;103097.69;;;18.32;43.38
60319;BME280;46163;52.306;5.634;2023-02-28T10:11:51;103088.16;;;18.29;43.09
60319;BME280;46163;52.306;5.634;2023-02-28T10:14:26;103083.03;;;18.41;43.21
60319;BME280;46163;52.306;5.634;2023-02-28T10:16:54;103086.38;;;18.43;43.28
60319;BME280;46163;52.306;5.634;2023-02-28T10:19:26;103094.25;;;18.45;43.28
60319;BME280;46163;52.306;5.634;2023-02-28T10:22:12;103086.81;;;18.47;43.03
60319;BME280;46163;52.306;5.634;2023-02-28T10:24:42;103091.78;;;18.50;42.90
60319;BME280;46163;52.306;5.634;2023-02-28T10:29:38;103085.00;;;18.54;43.08
60319;BME280;46163;52.306;5.634;2023-02-28T10:32:05;103082.72;;;18.57;42.96
60319;BME280;46163;52.306;5.634;2023-02-28T10:34:31;103088.75;;;18.59;42.78
60319;BME280;46163;52.306;5.634;2023-02-28T10:36:58;103088.75;;;18.59;42.61
60319;BME280;46163;52.306;5.634;2023-02-28T10:39:44;103091.25;;;18.61;42.66
60319;BME280;46163;52.306;5.634;2023-02-28T10:42:26;103089.19;;;18.63;42.90
60319;BME280;46163;52.306;5.634;2023-02-28T10:45:18;103086.28;;;18.64;42.81
60319;BME280;46163;52.306;5.634;2023-02-28T10:47:56;103082.94;;;18.62;42.81
60319;BME280;46163;52.306;5.634;2023-02-28T10:55:40;103073.00;;;18.63;42.73
60319;BME280;46163;52.306;5.634;2023-02-28T10:58:32;103073.22;;;18.61;42.80
60319;BME280;46163;52.306;5.634;2023-02-28T11:01:14;103075.06;;;18.61;42.65
60319;BME280;46163;52.306;5.634;2023-02-28T11:03:39;103065.31;;;18.60;42.96
60319;BME280;46163;52.306;5.634;2023-02-28T11:06:08;103057.41;;;18.58;42.51
60319;BME280;46163;52.306;5.634;2023-02-28T11:08:48;103043.72;;;18.53;42.63
60319;BME280;46163;52.306;5.634;2023-02-28T11:11:15;103046.59;;;18.52;42.77
60319;BME280;46163;52.306;5.634;2023-02-28T11:13:43;103044.53;;;18.54;42.70
60319;BME280;46163;52.306;5.634;2023-02-28T11:16:11;103058.22;;;18.52;42.76
60319;BME280;46163;52.306;5.634;2023-02-28T11:18:48;103054.88;;;18.50;42.75
60319;BME280;46163;52.306;5.634;2023-02-28T11:21:33;103044.69;;;18.46;42.91
60319;BME280;46163;52.306;5.634;2023-02-28T11:24:12;103053.63;;;18.46;42.25
60319;BME280;46163;52.306;5.634;2023-02-28T11:26:44;103053.81;;;18.45;42.17
60319;BME280;46163;52.306;5.634;2023-02-28T11:29:22;103050.69;;;18.41;41.75
60319;BME280;46163;52.306;5.634;2023-02-28T11:32:20;103037.59;;;18.38;41.79
60319;BME280;46163;52.306;5.634;2023-02-28T11:34:46;103044.03;;;18.37;41.94
60319;BME280;46163;52.306;5.634;2023-02-28T11:37:15;103042.38;;;18.36;41.75
60319;BME280;46163;52.306;5.634;2023-02-28T11:39:43;103035.31;;;18.35;41.74
60319;BME280;46163;52.306;5.634;2023-02-28T11:47:33;103030.97;;;18.34;41.79
60319;BME280;46163;52.306;5.634;2023-02-28T11:50:38;103025.56;;;18.34;41.90
60319;BME280;46163;52.306;5.634;2023-02-28T11:55:45;103016.44;;;18.35;42.27
60319;BME280;46163;52.306;5.634;2023-02-28T12:01:40;103023.91;;;18.40;42.47
60319;BME280;46163;52.306;5.634;2023-02-28T12:04:22;103024.75;;;18.40;42.70
60319;BME280;46163;52.306;5.634;2023-02-28T12:07:25;103026.41;;;18.41;42.65
60319;BME280;46163;52.306;5.634;2023-02-28T12:10:27;103028.94;;;18.43;42.85
60319;BME280;46163;52.306;5.634;2023-02-28T12:15:54;103032.63;;;18.42;42.75
60319;BME280;46163;52.306;5.634;2023-02-28T12:26:44;103003.59;;;18.37;43.23
60319;BME280;46163;52.306;5.634;2023-02-28T12:29:30;103007.75;;;18.40;43.03
60319;BME280;46163;52.306;5.634;2023-02-28T12:32:14;102996.34;;;18.38;42.94
60319;BME280;46163;52.306;5.634;2023-02-28T12:34:55;103000.69;;;18.39;43.13
60319;BME280;46163;52.306;5.634;2023-02-28T12:37:36;102998.22;;;18.37;43.01
60319;BME280;46163;52.306;5.634;2023-02-28T12:40:28;102995.09;;;18.33;43.10
60319;BME280;46163;52.306;5.634;2023-02-28T12:43:02;102996.31;;;18.31;43.11
60319;BME280;46163;52.306;5.634;2023-02-28T12:45:59;102983.84;;;18.30;42.88
60319;BME280;46163;52.306;5.634;2023-02-28T12:48:31;102993.81;;;18.29;43.55
60319;BME280;46163;52.306;5.634;2023-02-28T12:51:03;102991.31;;;18.28;43.15
60319;BME280;46163;52.306;5.634;2023-02-28T12:56:32;102992.16;;;18.28;43.12
60319;BME280;46163;52.306;5.634;2023-02-28T12:59:15;102988.81;;;18.26;43.40
60319;BME280;46163;52.306;5.634;2023-02-28T13:02:09;102993.38;;;18.26;43.50
60319;BME280;46163;52.306;5.634;2023-02-28T13:10:21;102986.72;;;18.22;43.47
60319;BME280;46163;52.306;5.634;2023-02-28T13:12:53;102974.47;;;18.19;43.38
60319;BME280;46163;52.306;5.634;2023-02-28T13:15:25;102974.47;;;18.19;43.32
60319;BME280;46163;52.306;5.634;2023-02-28T13:17:59;102972.19;;;18.16;43.30
60319;BME280;46163;52.306;5.634;2023-02-28T13:20:27;102970.50;;;18.15;43.54
60319;BME280;46163;52.306;5.634;2023-02-28T13:22:54;102965.13;;;18.15;43.70
60319;BME280;46163;52.306;5.634;2023-02-28T13:27:51;102963.66;;;18.13;43.80
60319;BME280;46163;52.306;5.634;2023-02-28T13:38:34;102956.03;;;18.16;43.69
60319;BME280;46163;52.306;5.634;2023-02-28T13:44:03;102953.97;;;18.18;43.56
60319;BME280;46163;52.306;5.634;2023-02-28T13:46:30;102951.88;;;18.20;43.53
60319;BME280;46163;52.306;5.634;2023-02-28T13:48:55;102942.56;;;18.16;43.49
60319;BME280;46163;52.306;5.634;2023-02-28T13:54:39;102944.44;;;18.22;43.46
60319;BME280;46163;52.306;5.634;2023-02-28T14:05:43;102937.63;;;18.26;43.40
60319;BME280;46163;52.306;5.634;2023-02-28T14:10:49;102940.09;;;18.28;43.71
60319;BME280;46163;52.306;5.634;2023-02-28T14:16:04;102935.75;;;18.27;43.53
60319;BME280;46163;52.306;5.634;2023-02-28T14:18:35;102935.34;;;18.30;43.39
60319;BME280;46163;52.306;5.634;2023-02-28T14:26:33;102933.47;;;18.30;43.37
60319;BME280;46163;52.306;5.634;2023-02-28T14:32:06;102930.34;;;18.27;43.25
60319;BME280;46163;52.306;5.634;2023-02-28T14:34:42;102932.44;;;18.31;43.34
60319;BME280;46163;52.306;5.634;2023-02-28T14:37:15;102934.94;;;18.33;43.53
60319;BME280;46163;52.306;5.634;2023-02-28T14:39:43;102931.59;;;18.31;43.40
60319;BME280;46163;52.306;5.634;2023-02-28T14:42:32;102931.41;;;18.32;43.54
60319;BME280;46163;52.306;5.634;2023-02-28T14:44:58;102926.22;;;18.31;43.75
60319;BME280;46163;52.306;5.634;2023-02-28T14:47:32;102926.22;;;18.31;43.71
60319;BME280;46163;52.306;5.634;2023-02-28T14:50:00;102933.47;;;18.30;43.68
60319;BME280;46163;52.306;5.634;2023-02-28T14:52:28;102931.81;;;18.29;43.44
60319;BME280;46163;52.306;5.634;2023-02-28T14:55:06;102932.03;;;18.28;43.87